sensor_id;sensor_type;location;lat;lon;timestamp;pressure;altitude;pressure_sealevel;temperature;humidity
75045;BME280;63614;56.026;35.960;2024-02-04T00:01:53;96058.44;;;1.08;82.45
75045;BME280;63614;56.026;35.960;2024-02-04T00:04:18;96059.75;;;1.17;82.50
75045;BME280;63614;56.026;35.960;2024-02-04T00:06:45;96059.44;;;1.32;82.43
75045;BME280;63614;56.026;35.960;2024-02-04T00:09:11;96057.06;;;1.31;82.35
75045;BME280;63614;56.026;35.960;2024-02-04T00:11:38;96046.06;;;1.30;81.98
75045;BME280;63614;56.026;35.960;2024-02-04T00:14:04;96047.03;;;1.29;82.31
75045;BME280;63614;56.026;35.960;2024-02-04T00:16:30;96038.44;;;1.23;82.67
75045;BME280;63614;56.026;35.960;2024-02-04T00:18:56;96034.31;;;1.22;82.94
75045;BME280;63614;56.026;35.960;2024-02-04T00:21:22;96031.66;;;1.36;82.91
75045;BME280;63614;56.026;35.960;2024-02-04T00:23:49;96023.78;;;1.31;83.01
75045;BME280;63614;56.026;35.960;2024-02-04T00:26:15;96026.84;;;1.21;82.95
75045;BME280;63614;56.026;35.960;2024-02-04T00:28:41;96012.28;;;1.40;82.95
75045;BME280;63614;56.026;35.960;2024-02-04T00:31:08;96017.34;;;1.47;82.49
75045;BME280;63614;56.026;35.960;2024-02-04T00:33:35;96018.63;;;1.37;83.00
75045;BME280;63614;56.026;35.960;2024-02-04T00:36:02;96016.31;;;1.29;83.60
75045;BME280;63614;56.026;35.960;2024-02-04T00:38:28;96011.22;;;1.48;83.75
75045;BME280;63614;56.026;35.960;2024-02-04T00:40:54;96008.03;;;1.52;83.51
75045;BME280;63614;56.026;35.960;2024-02-04T00:43:20;96009.63;;;1.53;83.76
75045;BME280;63614;56.026;35.960;2024-02-04T00:45:46;96002.69;;;1.54;83.93
75045;BME280;63614;56.026;35.960;2024-02-04T00:48:12;96004.13;;;1.68;84.18
75045;BME280;63614;56.026;35.960;2024-02-04T00:50:37;95998.00;;;1.69;84.10
75045;BME280;63614;56.026;35.960;2024-02-04T00:53:03;96000.06;;;1.79;83.84
75045;BME280;63614;56.026;35.960;2024-02-04T00:55:30;95991.75;;;1.84;83.60
75045;BME280;63614;56.026;35.960;2024-02-04T00:57:55;95989.66;;;1.92;83.69
75045;BME280;63614;56.026;35.960;2024-02-04T01:00:24;95997.63;;;1.84;83.71
75045;BME280;63614;56.026;35.960;2024-02-04T01:02:50;95991.22;;;1.75;84.71
75045;BME280;63614;56.026;35.960;2024-02-04T01:05:16;95983.84;;;1.67;85.03
75045;BME280;63614;56.026;35.960;2024-02-04T01:07:42;95984.56;;;1.55;85.54
75045;BME280;63614;56.026;35.960;2024-02-04T01:10:08;95987.03;;;1.62;85.77
75045;BME280;63614;56.026;35.960;2024-02-04T01:12:35;95988.25;;;1.78;85.87
75045;BME280;63614;56.026;35.960;2024-02-04T01:15:01;95992.16;;;1.80;85.30
75045;BME280;63614;56.026;35.960;2024-02-04T01:17:29;95982.56;;;1.76;85.11
75045;BME280;63614;56.026;35.960;2024-02-04T01:19:56;95979.06;;;1.70;85.56
75045;BME280;63614;56.026;35.960;2024-02-04T01:22:22;95976.00;;;1.80;85.28
75045;BME280;63614;56.026;35.960;2024-02-04T01:24:53;95975.44;;;1.78;85.73
75045;BME280;63614;56.026;35.960;2024-02-04T01:27:19;95977.47;;;1.88;85.32
75045;BME280;63614;56.026;35.960;2024-02-04T01:29:45;95969.31;;;1.79;85.53
75045;BME280;63614;56.026;35.960;2024-02-04T01:32:11;95965.09;;;1.85;85.63
75045;BME280;63614;56.026;35.960;2024-02-04T01:34:37;95966.31;;;1.82;85.49
75045;BME280;63614;56.026;35.960;2024-02-04T01:37:03;95963.47;;;1.90;85.34
75045;BME280;63614;56.026;35.960;2024-02-04T01:39:29;95968.00;;;1.88;85.46
75045;BME280;63614;56.026;35.960;2024-02-04T01:41:55;95966.16;;;1.77;85.56
75045;BME280;63614;56.026;35.960;2024-02-04T01:44:21;95957.72;;;1.76;86.10
75045;BME280;63614;56.026;35.960;2024-02-04T01:46:48;95958.47;;;1.77;86.22
75045;BME280;63614;56.026;35.960;2024-02-04T01:49:14;95962.19;;;1.81;86.12
75045;BME280;63614;56.026;35.960;2024-02-04T01:51:41;95951.97;;;1.93;86.07
75045;BME280;63614;56.026;35.960;2024-02-04T01:54:07;95949.41;;;1.93;85.28
75045;BME280;63614;56.026;35.960;2024-02-04T01:56:34;95954.13;;;1.96;85.49
75045;BME280;63614;56.026;35.960;2024-02-04T01:59:01;95949.69;;;2.03;85.38
75045;BME280;63614;56.026;35.960;2024-02-04T02:01:27;95956.13;;;1.94;85.71
75045;BME280;63614;56.026;35.960;2024-02-04T02:03:53;95951.13;;;1.99;85.43
75045;BME280;63614;56.026;35.960;2024-02-04T02:06:21;95946.38;;;2.14;85.37
75045;BME280;63614;56.026;35.960;2024-02-04T02:08:48;95936.47;;;2.18;84.83
75045;BME280;63614;56.026;35.960;2024-02-04T02:11:27;95935.91;;;2.16;84.87
75045;BME280;63614;56.026;35.960;2024-02-04T02:14:00;95927.63;;;2.02;85.55
75045;BME280;63614;56.026;35.960;2024-02-04T02:16:31;95935.19;;;1.97;85.93
75045;BME280;63614;56.026;35.960;2024-02-04T02:21:57;95928.84;;;1.99;86.06
75045;BME280;63614;56.026;35.960;2024-02-04T02:27:00;95914.13;;;1.95;85.99
75045;BME280;63614;56.026;35.960;2024-02-04T02:29:26;95916.91;;;1.93;85.91
75045;BME280;63614;56.026;35.960;2024-02-04T02:31:51;95913.75;;;1.91;85.98
75045;BME280;63614;56.026;35.960;2024-02-04T02:34:17;95910.00;;;1.94;85.87
75045;BME280;63614;56.026;35.960;2024-02-04T02:36:45;95907.19;;;1.84;86.16
75045;BME280;63614;56.026;35.960;2024-02-04T02:39:18;95907.09;;;1.90;85.76
75045;BME280;63614;56.026;35.960;2024-02-04T02:41:49;95908.34;;;1.99;85.79
75045;BME280;63614;56.026;35.960;2024-02-04T02:44:20;95903.50;;;1.91;85.64
75045;BME280;63614;56.026;35.960;2024-02-04T02:46:47;95905.41;;;1.96;85.79
75045;BME280;63614;56.026;35.960;2024-02-04T02:49:14;95912.72;;;2.11;85.61
75045;BME280;63614;56.026;35.960;2024-02-04T02:51:39;95903.78;;;2.02;85.19
75045;BME280;63614;56.026;35.960;2024-02-04T02:54:05;95903.66;;;1.96;85.78
75045;BME280;63614;56.026;35.960;2024-02-04T02:56:31;95902.69;;;2.09;85.64
75045;BME280;63614;56.026;35.960;2024-02-04T02:58:57;95892.75;;;2.01;85.41
75045;BME280;63614;56.026;35.960;2024-02-04T03:01:23;95896.00;;;2.20;85.45
75045;BME280;63614;56.026;35.960;2024-02-04T03:03:49;95886.53;;;2.21;85.07
75045;BME280;63614;56.026;35.960;2024-02-04T03:06:15;95881.75;;;2.24;84.68
75045;BME280;63614;56.026;35.960;2024-02-04T03:08:41;95883.00;;;2.33;84.58
75045;BME280;63614;56.026;35.960;2024-02-04T03:11:07;95883.41;;;2.18;84.66
75045;BME280;63614;56.026;35.960;2024-02-04T03:13:32;95882.50;;;2.13;85.13
75045;BME280;63614;56.026;35.960;2024-02-04T03:15:58;95880.63;;;2.20;85.07
75045;BME280;63614;56.026;35.960;2024-02-04T03:18:25;95873.69;;;2.09;85.07
75045;BME280;63614;56.026;35.960;2024-02-04T03:20:51;95875.91;;;2.05;84.97
75045;BME280;63614;56.026;35.960;2024-02-04T03:23:17;95880.72;;;2.13;85.01
75045;BME280;63614;56.026;35.960;2024-02-04T03:25:43;95870.94;;;2.22;84.67
75045;BME280;63614;56.026;35.960;2024-02-04T03:28:09;95874.59;;;2.26;84.54
75045;BME280;63614;56.026;35.960;2024-02-04T03:30:35;95870.94;;;2.22;84.24
75045;BME280;63614;56.026;35.960;2024-02-04T03:33:01;95869.91;;;2.11;84.74
75045;BME280;63614;56.026;35.960;2024-02-04T03:35:27;95871.13;;;2.09;84.89
75045;BME280;63614;56.026;35.960;2024-02-04T03:37:53;95867.44;;;2.05;85.09
75045;BME280;63614;56.026;35.960;2024-02-04T03:40:19;95866.41;;;1.94;85.21
75045;BME280;63614;56.026;35.960;2024-02-04T03:42:48;95869.84;;;1.88;85.88
75045;BME280;63614;56.026;35.960;2024-02-04T03:45:14;95870.63;;;1.88;86.16
75045;BME280;63614;56.026;35.960;2024-02-04T03:47:40;95869.63;;;1.89;85.83
75045;BME280;63614;56.026;35.960;2024-02-04T03:50:06;95868.66;;;1.90;85.88
75045;BME280;63614;56.026;35.960;2024-02-04T03:52:32;95865.06;;;1.91;85.69
75045;BME280;63614;56.026;35.960;2024-02-04T03:54:58;95856.41;;;2.04;85.46
75045;BME280;63614;56.026;35.960;2024-02-04T03:57:26;95871.13;;;2.09;85.23
75045;BME280;63614;56.026;35.960;2024-02-04T03:59:52;95874.91;;;2.06;84.95
75045;BME280;63614;56.026;35.960;2024-02-04T04:02:18;95882.03;;;2.04;85.11
75045;BME280;63614;56.026;35.960;2024-02-04T04:04:43;95883.50;;;2.00;85.19
75045;BME280;63614;56.026;35.960;2024-02-04T04:07:13;95868.88;;;1.89;85.86
75045;BME280;63614;56.026;35.960;2024-02-04T04:09:39;95871.63;;;1.87;85.75
75045;BME280;63614;56.026;35.960;2024-02-04T04:12:05;95881.34;;;1.85;85.68
75045;BME280;63614;56.026;35.960;2024-02-04T04:14:31;95881.84;;;1.75;86.09
75045;BME280;63614;56.026;35.960;2024-02-04T04:16:57;95882.47;;;1.71;86.35
75045;BME280;63614;56.026;35.960;2024-02-04T04:19:22;95880.63;;;1.78;86.30
75045;BME280;63614;56.026;35.960;2024-02-04T04:21:50;95893.53;;;1.71;86.00
75045;BME280;63614;56.026;35.960;2024-02-04T04:24:16;95898.09;;;1.69;86.00
75045;BME280;63614;56.026;35.960;2024-02-04T04:26:45;95904.78;;;1.70;85.90
75045;BME280;63614;56.026;35.960;2024-02-04T04:29:11;95902.09;;;1.65;86.20
75045;BME280;63614;56.026;35.960;2024-02-04T04:31:37;95910.16;;;1.50;86.65
75045;BME280;63614;56.026;35.960;2024-02-04T04:34:03;95910.16;;;1.50;86.72
75045;BME280;63614;56.026;35.960;2024-02-04T04:36:29;95910.22;;;1.43;87.18
75045;BME280;63614;56.026;35.960;2024-02-04T04:38:55;95920.41;;;1.50;87.38
75045;BME280;63614;56.026;35.960;2024-02-04T04:41:20;95921.81;;;1.46;87.00
75045;BME280;63614;56.026;35.960;2024-02-04T04:43:46;95920.47;;;1.25;87.68
75045;BME280;63614;56.026;35.960;2024-02-04T04:46:12;95925.66;;;1.37;88.20
75045;BME280;63614;56.026;35.960;2024-02-04T04:48:38;95930.38;;;1.21;88.05
75045;BME280;63614;56.026;35.960;2024-02-04T04:51:07;95932.53;;;1.18;88.21
75045;BME280;63614;56.026;35.960;2024-02-04T04:53:33;95938.78;;;1.03;88.73
75045;BME280;63614;56.026;35.960;2024-02-04T04:55:59;95933.94;;;0.95;89.65
75045;BME280;63614;56.026;35.960;2024-02-04T04:58:25;95927.50;;;0.93;90.30
75045;BME280;63614;56.026;35.960;2024-02-04T05:00:51;95946.81;;;0.88;90.63
75045;BME280;63614;56.026;35.960;2024-02-04T05:03:17;95943.19;;;0.96;90.74
75045;BME280;63614;56.026;35.960;2024-02-04T05:05:42;95946.75;;;0.95;90.53
75045;BME280;63614;56.026;35.960;2024-02-04T05:08:09;95951.72;;;0.90;90.39
75045;BME280;63614;56.026;35.960;2024-02-04T05:10:34;95955.06;;;0.90;90.90
75045;BME280;63614;56.026;35.960;2024-02-04T05:13:00;95959.53;;;0.95;90.82
75045;BME280;63614;56.026;35.960;2024-02-04T05:15:26;95956.84;;;0.90;90.85
75045;BME280;63614;56.026;35.960;2024-02-04T05:17:52;95957.47;;;0.85;90.45
75045;BME280;63614;56.026;35.960;2024-02-04T05:20:18;95963.56;;;0.84;90.72
75045;BME280;63614;56.026;35.960;2024-02-04T05:22:44;95964.56;;;0.83;90.97
75045;BME280;63614;56.026;35.960;2024-02-04T05:25:10;95972.19;;;0.90;90.86
75045;BME280;63614;56.026;35.960;2024-02-04T05:27:36;95979.38;;;0.75;90.71
75045;BME280;63614;56.026;35.960;2024-02-04T05:30:03;95985.66;;;0.79;91.04
75045;BME280;63614;56.026;35.960;2024-02-04T05:32:30;95975.44;;;0.79;90.83
75045;BME280;63614;56.026;35.960;2024-02-04T05:34:56;95976.13;;;0.67;91.12
75045;BME280;63614;56.026;35.960;2024-02-04T05:37:22;95982.56;;;0.70;91.35
75045;BME280;63614;56.026;35.960;2024-02-04T05:39:48;95990.44;;;0.68;91.30
75045;BME280;63614;56.026;35.960;2024-02-04T05:42:14;95987.53;;;0.65;90.79
75045;BME280;63614;56.026;35.960;2024-02-04T05:44:40;96010.75;;;0.63;90.65
75045;BME280;63614;56.026;35.960;2024-02-04T05:47:05;96017.09;;;0.61;91.53
75045;BME280;63614;56.026;35.960;2024-02-04T05:49:31;96013.88;;;0.65;91.33
75045;BME280;63614;56.026;35.960;2024-02-04T05:51:57;96029.41;;;0.70;91.38
75045;BME280;63614;56.026;35.960;2024-02-04T05:54:23;96031.16;;;0.70;91.36
75045;BME280;63614;56.026;35.960;2024-02-04T05:56:49;96031.16;;;0.70;91.29
75045;BME280;63614;56.026;35.960;2024-02-04T05:59:15;96037.09;;;0.70;91.26
75045;BME280;63614;56.026;35.960;2024-02-04T06:01:42;96036.06;;;0.71;91.36
75045;BME280;63614;56.026;35.960;2024-02-04T06:04:08;96039.66;;;0.64;91.54
75045;BME280;63614;56.026;35.960;2024-02-04T06:06:34;96042.97;;;0.71;91.23
75045;BME280;63614;56.026;35.960;2024-02-04T06:09:00;96035.16;;;0.66;91.17
75045;BME280;63614;56.026;35.960;2024-02-04T06:11:26;96038.47;;;0.66;91.23
75045;BME280;63614;56.026;35.960;2024-02-04T06:13:52;96044.97;;;0.69;90.93
75045;BME280;63614;56.026;35.960;2024-02-04T06:16:19;96045.91;;;0.75;90.62
75045;BME280;63614;56.026;35.960;2024-02-04T06:18:45;96037.59;;;0.79;90.76
75045;BME280;63614;56.026;35.960;2024-02-04T06:21:11;96042.94;;;0.78;90.48
75045;BME280;63614;56.026;35.960;2024-02-04T06:23:38;96052.03;;;0.74;90.55
75045;BME280;63614;56.026;35.960;2024-02-04T06:26:05;96065.19;;;0.77;89.99
75045;BME280;63614;56.026;35.960;2024-02-04T06:28:31;96071.78;;;0.92;89.97
75045;BME280;63614;56.026;35.960;2024-02-04T06:30:57;96071.78;;;0.92;89.63
75045;BME280;63614;56.026;35.960;2024-02-04T06:33:23;96076.72;;;0.86;88.79
75045;BME280;63614;56.026;35.960;2024-02-04T06:35:50;96095.31;;;1.00;89.09
75045;BME280;63614;56.026;35.960;2024-02-04T06:38:16;96091.00;;;1.01;87.59
75045;BME280;63614;56.026;35.960;2024-02-04T06:40:42;96099.41;;;1.08;86.65
75045;BME280;63614;56.026;35.960;2024-02-04T06:43:08;96104.16;;;1.04;85.94
75045;BME280;63614;56.026;35.960;2024-02-04T06:45:34;96096.06;;;1.07;86.31
75045;BME280;63614;56.026;35.960;2024-02-04T06:48:00;96108.59;;;1.16;85.86
75045;BME280;63614;56.026;35.960;2024-02-04T06:50:26;96109.78;;;1.20;85.61
75045;BME280;63614;56.026;35.960;2024-02-04T06:52:51;96110.53;;;1.20;85.24
75045;BME280;63614;56.026;35.960;2024-02-04T06:55:17;96121.00;;;1.19;84.44
75045;BME280;63614;56.026;35.960;2024-02-04T06:57:44;96122.38;;;1.15;83.57
75045;BME280;63614;56.026;35.960;2024-02-04T07:00:10;96125.34;;;1.18;83.18
75045;BME280;63614;56.026;35.960;2024-02-04T07:02:38;96117.66;;;1.18;82.43
75045;BME280;63614;56.026;35.960;2024-02-04T07:05:04;96129.59;;;1.24;81.98
75045;BME280;63614;56.026;35.960;2024-02-04T07:07:31;96129.25;;;1.21;81.16
75045;BME280;63614;56.026;35.960;2024-02-04T07:09:57;96139.97;;;1.36;81.26
75045;BME280;63614;56.026;35.960;2024-02-04T07:12:23;96148.16;;;1.45;80.99
75045;BME280;63614;56.026;35.960;2024-02-04T07:14:49;96148.44;;;1.37;79.46
75045;BME280;63614;56.026;35.960;2024-02-04T07:17:15;96151.44;;;1.27;79.64
75045;BME280;63614;56.026;35.960;2024-02-04T07:19:41;96146.50;;;1.32;79.41
75045;BME280;63614;56.026;35.960;2024-02-04T07:22:07;96155.34;;;1.36;79.29
75045;BME280;63614;56.026;35.960;2024-02-04T07:24:33;96163.31;;;1.47;79.15
75045;BME280;63614;56.026;35.960;2024-02-04T07:26:59;96162.75;;;1.44;78.21
75045;BME280;63614;56.026;35.960;2024-02-04T07:29:25;96158.19;;;1.47;78.29
75045;BME280;63614;56.026;35.960;2024-02-04T07:31:51;96157.63;;;1.44;77.09
75045;BME280;63614;56.026;35.960;2024-02-04T07:34:16;96164.91;;;1.48;77.07
75045;BME280;63614;56.026;35.960;2024-02-04T07:36:42;96156.94;;;1.56;76.10
75045;BME280;63614;56.026;35.960;2024-02-04T07:39:11;96157.09;;;1.61;75.52
75045;BME280;63614;56.026;35.960;2024-02-04T07:41:37;96160.72;;;1.53;74.96
75045;BME280;63614;56.026;35.960;2024-02-04T07:44:03;96173.28;;;1.61;75.23
75045;BME280;63614;56.026;35.960;2024-02-04T07:46:29;96163.59;;;1.63;73.51
75045;BME280;63614;56.026;35.960;2024-02-04T07:48:55;96173.00;;;1.44;73.66
75045;BME280;63614;56.026;35.960;2024-02-04T07:51:21;96178.00;;;1.58;74.51
75045;BME280;63614;56.026;35.960;2024-02-04T07:53:47;96171.28;;;1.63;73.64
75045;BME280;63614;56.026;35.960;2024-02-04T07:56:12;96190.78;;;1.65;73.46
75045;BME280;63614;56.026;35.960;2024-02-04T07:58:38;96184.19;;;1.75;73.10
75045;BME280;63614;56.026;35.960;2024-02-04T08:01:04;96191.72;;;1.70;72.67
75045;BME280;63614;56.026;35.960;2024-02-04T08:03:30;96202.75;;;1.71;73.25
75045;BME280;63614;56.026;35.960;2024-02-04T08:05:56;96191.56;;;1.65;72.34
75045;BME280;63614;56.026;35.960;2024-02-04T08:08:22;96202.22;;;1.62;72.82
75045;BME280;63614;56.026;35.960;2024-02-04T08:10:48;96208.66;;;1.71;72.81
75045;BME280;63614;56.026;35.960;2024-02-04T08:13:13;96210.13;;;1.86;71.87
75045;BME280;63614;56.026;35.960;2024-02-04T08:15:40;96211.22;;;1.96;71.23
75045;BME280;63614;56.026;35.960;2024-02-04T08:18:06;96217.84;;;2.04;71.38
75045;BME280;63614;56.026;35.960;2024-02-04T08:20:32;96214.25;;;1.87;71.48
75045;BME280;63614;56.026;35.960;2024-02-04T08:22:57;96222.94;;;1.86;72.12
75045;BME280;63614;56.026;35.960;2024-02-04T08:25:23;96234.91;;;1.92;72.82
75045;BME280;63614;56.026;35.960;2024-02-04T08:27:49;96240.69;;;2.06;72.84
75045;BME280;63614;56.026;35.960;2024-02-04T08:30:15;96237.22;;;2.18;72.42
75045;BME280;63614;56.026;35.960;2024-02-04T08:32:44;96234.00;;;2.30;72.68
75045;BME280;63614;56.026;35.960;2024-02-04T08:35:10;96241.91;;;2.47;72.26
75045;BME280;63614;56.026;35.960;2024-02-04T08:37:36;96238.56;;;2.46;72.24
75045;BME280;63614;56.026;35.960;2024-02-04T08:40:06;96242.03;;;2.33;72.70
75045;BME280;63614;56.026;35.960;2024-02-04T08:42:32;96245.44;;;2.27;72.64
75045;BME280;63614;56.026;35.960;2024-02-04T08:44:58;96230.91;;;2.21;72.41
75045;BME280;63614;56.026;35.960;2024-02-04T08:47:23;96232.91;;;2.38;72.53
75045;BME280;63614;56.026;35.960;2024-02-04T08:49:49;96229.91;;;2.41;71.99
75045;BME280;63614;56.026;35.960;2024-02-04T08:52:15;96240.19;;;2.41;72.22
75045;BME280;63614;56.026;35.960;2024-02-04T08:54:41;96233.91;;;2.55;71.81
75045;BME280;63614;56.026;35.960;2024-02-04T08:57:07;96234.34;;;2.52;72.12
75045;BME280;63614;56.026;35.960;2024-02-04T08:59:33;96229.94;;;2.59;72.33
75045;BME280;63614;56.026;35.960;2024-02-04T09:01:59;96230.06;;;2.64;71.78
75045;BME280;63614;56.026;35.960;2024-02-04T09:04:25;96227.66;;;2.51;71.85
75045;BME280;63614;56.026;35.960;2024-02-04T09:06:50;96236.28;;;2.57;71.74
75045;BME280;63614;56.026;35.960;2024-02-04T09:09:16;96229.50;;;2.62;71.70
75045;BME280;63614;56.026;35.960;2024-02-04T09:11:42;96231.00;;;2.51;72.35
75045;BME280;63614;56.026;35.960;2024-02-04T09:14:08;96237.78;;;2.83;71.82
75045;BME280;63614;56.026;35.960;2024-02-04T09:16:37;96230.63;;;2.85;71.51
75045;BME280;63614;56.026;35.960;2024-02-04T09:19:03;96237.50;;;3.21;71.00
75045;BME280;63614;56.026;35.960;2024-02-04T09:21:29;96240.66;;;3.35;70.88
75045;BME280;63614;56.026;35.960;2024-02-04T09:23:55;96229.66;;;3.47;69.99
75045;BME280;63614;56.026;35.960;2024-02-04T09:26:23;96234.41;;;3.43;70.55
75045;BME280;63614;56.026;35.960;2024-02-04T09:28:48;96238.47;;;3.51;70.70
75045;BME280;63614;56.026;35.960;2024-02-04T09:31:15;96227.19;;;3.52;70.29
75045;BME280;63614;56.026;35.960;2024-02-04T09:33:42;96240.34;;;3.43;69.92
75045;BME280;63614;56.026;35.960;2024-02-04T09:36:08;96242.72;;;3.45;70.16
75045;BME280;63614;56.026;35.960;2024-02-04T09:38:34;96237.81;;;3.55;70.09
75045;BME280;63614;56.026;35.960;2024-02-04T09:41:00;96229.78;;;3.21;69.73
75045;BME280;63614;56.026;35.960;2024-02-04T09:43:26;96237.28;;;3.23;70.50
75045;BME280;63614;56.026;35.960;2024-02-04T09:45:52;96231.16;;;3.36;70.26
75045;BME280;63614;56.026;35.960;2024-02-04T09:48:19;96229.03;;;3.33;69.88
75045;BME280;63614;56.026;35.960;2024-02-04T09:50:46;96233.53;;;3.49;70.28
75045;BME280;63614;56.026;35.960;2024-02-04T09:53:14;96237.53;;;3.75;69.65
75045;BME280;63614;56.026;35.960;2024-02-04T09:55:42;96225.44;;;3.76;69.32
75045;BME280;63614;56.026;35.960;2024-02-04T09:58:08;96222.88;;;3.76;70.04
75045;BME280;63614;56.026;35.960;2024-02-04T10:00:35;96232.13;;;3.65;70.15
75045;BME280;63614;56.026;35.960;2024-02-04T10:03:02;96233.38;;;3.62;70.36
75045;BME280;63614;56.026;35.960;2024-02-04T10:05:29;96228.66;;;3.59;70.49
75045;BME280;63614;56.026;35.960;2024-02-04T10:07:55;96223.75;;;3.58;69.72
75045;BME280;63614;56.026;35.960;2024-02-04T10:10:21;96227.84;;;3.59;69.01
75045;BME280;63614;56.026;35.960;2024-02-04T10:12:47;96227.06;;;3.47;69.38
75045;BME280;63614;56.026;35.960;2024-02-04T10:15:13;96234.06;;;3.27;71.00
75045;BME280;63614;56.026;35.960;2024-02-04T10:17:42;96221.66;;;3.24;71.56
75045;BME280;63614;56.026;35.960;2024-02-04T10:20:10;96229.75;;;3.40;71.41
75045;BME280;63614;56.026;35.960;2024-02-04T10:22:38;96231.56;;;3.51;71.08
75045;BME280;63614;56.026;35.960;2024-02-04T10:25:08;96226.09;;;3.71;70.33
75045;BME280;63614;56.026;35.960;2024-02-04T10:27:35;96214.56;;;3.62;70.37
75045;BME280;63614;56.026;35.960;2024-02-04T10:30:01;96211.66;;;3.58;70.47
75045;BME280;63614;56.026;35.960;2024-02-04T10:32:27;96211.88;;;3.57;70.30
75045;BME280;63614;56.026;35.960;2024-02-04T10:34:53;96219.09;;;3.78;69.42
75045;BME280;63614;56.026;35.960;2024-02-04T10:37:19;96222.22;;;3.80;68.87
75045;BME280;63614;56.026;35.960;2024-02-04T10:39:44;96216.97;;;3.75;68.82
75045;BME280;63614;56.026;35.960;2024-02-04T10:42:12;96211.13;;;3.68;69.43
75045;BME280;63614;56.026;35.960;2024-02-04T10:44:39;96210.69;;;3.71;68.73
75045;BME280;63614;56.026;35.960;2024-02-04T10:47:10;96217.84;;;3.81;68.33
75045;BME280;63614;56.026;35.960;2024-02-04T10:49:41;96210.91;;;3.58;68.99
75045;BME280;63614;56.026;35.960;2024-02-04T10:52:11;96219.31;;;3.77;69.32
75045;BME280;63614;56.026;35.960;2024-02-04T10:54:38;96213.69;;;3.68;69.04
75045;BME280;63614;56.026;35.960;2024-02-04T10:57:14;96209.81;;;3.77;68.58
75045;BME280;63614;56.026;35.960;2024-02-04T10:59:42;96210.78;;;3.76;68.53
75045;BME280;63614;56.026;35.960;2024-02-04T11:02:11;96211.47;;;3.84;68.47
75045;BME280;63614;56.026;35.960;2024-02-04T11:04:38;96207.22;;;3.77;67.92
75045;BME280;63614;56.026;35.960;2024-02-04T11:07:05;96201.97;;;3.84;67.83
75045;BME280;63614;56.026;35.960;2024-02-04T11:09:32;96214.78;;;3.49;68.55
75045;BME280;63614;56.026;35.960;2024-02-04T11:11:59;96211.16;;;3.26;68.84
75045;BME280;63614;56.026;35.960;2024-02-04T11:14:26;96222.06;;;3.21;69.54
75045;BME280;63614;56.026;35.960;2024-02-04T11:17:15;96220.91;;;3.05;70.31
75045;BME280;63614;56.026;35.960;2024-02-04T11:20:16;96230.75;;;2.90;71.09
75045;BME280;63614;56.026;35.960;2024-02-04T11:28:13;96241.66;;;2.85;71.99
75045;BME280;63614;56.026;35.960;2024-02-04T11:30:43;96242.59;;;2.91;72.88
75045;BME280;63614;56.026;35.960;2024-02-04T11:33:11;96238.88;;;2.87;72.80
75045;BME280;63614;56.026;35.960;2024-02-04T11:35:38;96242.69;;;2.84;73.17
75045;BME280;63614;56.026;35.960;2024-02-04T11:38:04;96248.59;;;2.85;73.34
75045;BME280;63614;56.026;35.960;2024-02-04T11:40:31;96251.81;;;2.62;73.35
75045;BME280;63614;56.026;35.960;2024-02-04T11:43:13;96241.69;;;2.67;73.93
75045;BME280;63614;56.026;35.960;2024-02-04T11:45:41;96250.88;;;2.56;74.55
75045;BME280;63614;56.026;35.960;2024-02-04T11:48:08;96249.66;;;2.77;73.97
75045;BME280;63614;56.026;35.960;2024-02-04T11:50:36;96253.16;;;2.83;73.78
75045;BME280;63614;56.026;35.960;2024-02-04T11:53:10;96249.38;;;2.85;73.40
75045;BME280;63614;56.026;35.960;2024-02-04T11:55:38;96247.41;;;2.69;73.09
75045;BME280;63614;56.026;35.960;2024-02-04T11:58:05;96247.25;;;2.64;73.18
75045;BME280;63614;56.026;35.960;2024-02-04T12:00:33;96245.38;;;2.71;72.97
75045;BME280;63614;56.026;35.960;2024-02-04T12:03:04;96246.53;;;2.75;72.74
75045;BME280;63614;56.026;35.960;2024-02-04T12:05:36;96248.59;;;2.85;72.70
75045;BME280;63614;56.026;35.960;2024-02-04T12:08:04;96253.38;;;2.81;72.57
75045;BME280;63614;56.026;35.960;2024-02-04T12:10:31;96249.59;;;2.84;72.83
75045;BME280;63614;56.026;35.960;2024-02-04T12:12:59;96241.19;;;2.77;72.49
75045;BME280;63614;56.026;35.960;2024-02-04T12:15:28;96248.13;;;2.58;72.84
75045;BME280;63614;56.026;35.960;2024-02-04T12:17:54;96251.81;;;2.80;72.93
75045;BME280;63614;56.026;35.960;2024-02-04T12:20:20;96252.75;;;2.86;72.43
75045;BME280;63614;56.026;35.960;2024-02-04T12:22:46;96248.38;;;2.86;72.52
75045;BME280;63614;56.026;35.960;2024-02-04T12:25:12;96241.31;;;3.00;72.11
75045;BME280;63614;56.026;35.960;2024-02-04T12:27:37;96248.13;;;2.76;72.64
75045;BME280;63614;56.026;35.960;2024-02-04T12:30:04;96249.66;;;2.77;73.09
75045;BME280;63614;56.026;35.960;2024-02-04T12:32:31;96252.16;;;2.84;73.32
75045;BME280;63614;56.026;35.960;2024-02-04T12:34:57;96249.59;;;2.84;73.70
75045;BME280;63614;56.026;35.960;2024-02-04T12:37:23;96254.06;;;2.88;73.73
75045;BME280;63614;56.026;35.960;2024-02-04T12:39:48;96254.25;;;2.94;73.65
75045;BME280;63614;56.026;35.960;2024-02-04T12:42:17;96249.25;;;2.80;74.16
75045;BME280;63614;56.026;35.960;2024-02-04T12:44:50;96252.88;;;2.91;74.37
75045;BME280;63614;56.026;35.960;2024-02-04T12:47:19;96246.53;;;2.94;73.73
75045;BME280;63614;56.026;35.960;2024-02-04T12:49:46;96251.09;;;2.91;73.77
75045;BME280;63614;56.026;35.960;2024-02-04T12:52:12;96250.94;;;2.86;73.90
75045;BME280;63614;56.026;35.960;2024-02-04T12:54:45;96248.03;;;2.83;73.50
75045;BME280;63614;56.026;35.960;2024-02-04T12:57:22;96248.47;;;2.61;74.01
75045;BME280;63614;56.026;35.960;2024-02-04T12:59:51;96252.97;;;2.47;74.51
75045;BME280;63614;56.026;35.960;2024-02-04T13:02:17;96265.50;;;2.56;74.45
75045;BME280;63614;56.026;35.960;2024-02-04T13:04:43;96255.00;;;2.39;74.01
75045;BME280;63614;56.026;35.960;2024-02-04T13:07:13;96254.88;;;2.33;74.51
75045;BME280;63614;56.026;35.960;2024-02-04T13:09:40;96252.69;;;2.12;75.05